createdAt,value
2022-12-01T00:00:44.144Z,48.66
2022-12-01T00:01:44.365Z,48.50
2022-12-01T00:02:44.243Z,48.50
2022-12-01T00:03:44.093Z,52.69
2022-12-01T00:04:44.109Z,44.31
2022-12-01T00:05:44.083Z,42.86
2022-12-01T00:06:44.078Z,44.15
2022-12-01T00:07:44.186Z,44.47
2022-12-01T00:08:44.071Z,44.47
2022-12-01T00:09:44.054Z,49.15
2022-12-01T00:10:44.032Z,46.08
2022-12-01T00:11:44.034Z,45.12
2022-12-01T00:12:44.043Z,51.72
2022-12-01T00:13:44.034Z,50.11
2022-12-01T00:14:44.005Z,47.21
2022-12-01T00:15:44.006Z,43.67
2022-12-01T00:16:44.043Z,48.34
2022-12-01T00:17:43.966Z,46.08
2022-12-01T00:18:43.960Z,52.69
2022-12-01T00:19:43.956Z,47.05
2022-12-01T00:20:43.928Z,43.83
2022-12-01T00:21:43.955Z,44.31
2022-12-01T00:22:43.910Z,43.83
2022-12-01T00:23:43.921Z,46.25
2022-12-01T00:24:43.892Z,53.17
2022-12-01T00:25:43.897Z,49.95
2022-12-01T00:26:43.895Z,46.41
2022-12-01T00:27:43.881Z,48.34
2022-12-01T00:28:43.861Z,47.37
2022-12-01T00:29:43.866Z,44.47
2022-12-01T00:30:43.832Z,52.05
2022-12-01T00:31:43.865Z,51.72
2022-12-01T00:32:43.825Z,53.01
2022-12-01T00:33:43.881Z,46.41
2022-12-01T00:34:43.808Z,45.12
2022-12-01T00:35:43.782Z,57.20
2022-12-01T00:36:43.786Z,47.05
2022-12-01T00:37:43.767Z,45.60
2022-12-01T00:38:43.748Z,46.41
2022-12-01T00:39:43.774Z,47.05
2022-12-01T00:40:43.738Z,44.79
2022-12-01T00:41:43.750Z,48.66
2022-12-01T00:42:43.703Z,48.50
2022-12-01T00:43:43.713Z,48.34
2022-12-01T00:44:43.704Z,48.82
2022-12-01T00:45:43.708Z,45.28
2022-12-01T00:46:43.700Z,45.92
2022-12-01T00:47:43.675Z,50.43
2022-12-01T00:48:43.663Z,45.44
2022-12-01T00:49:43.672Z,47.37
2022-12-01T00:50:43.647Z,45.44
2022-12-01T00:51:43.611Z,44.96
2022-12-01T00:52:43.603Z,45.28
2022-12-01T00:53:44.594Z,47.53
2022-12-01T00:54:43.610Z,50.27
2022-12-01T00:55:43.586Z,52.69
2022-12-01T00:56:43.581Z,51.56
2022-12-01T00:57:43.587Z,51.40
2022-12-01T00:58:43.565Z,52.85
2022-12-01T00:59:43.558Z,54.30
2022-12-01T01:00:43.543Z,49.31
2022-12-01T01:01:43.580Z,50.43
2022-12-01T01:02:43.539Z,49.63
2022-12-01T01:03:44.503Z,48.34
2022-12-01T01:04:43.531Z,43.83
2022-12-01T01:05:43.494Z,47.05
2022-12-01T01:06:43.480Z,47.37
2022-12-01T01:07:43.547Z,49.15
2022-12-01T01:08:43.467Z,48.02
2022-12-01T01:09:43.463Z,53.50
2022-12-01T01:10:43.454Z,48.18
2022-12-01T01:11:43.448Z,53.33
2022-12-01T01:12:43.430Z,49.31
2022-12-01T01:13:43.419Z,47.37
2022-12-01T01:14:43.399Z,47.05
2022-12-01T01:15:43.381Z,48.34
2022-12-01T01:16:43.642Z,48.34
2022-12-01T01:17:43.390Z,48.18
2022-12-01T01:18:43.381Z,45.44
2022-12-01T01:19:43.342Z,49.63
2022-12-01T01:20:43.326Z,49.63
2022-12-01T01:21:43.329Z,47.21
2022-12-01T01:22:43.303Z,45.92
2022-12-01T01:23:43.336Z,45.60
2022-12-01T01:24:43.301Z,46.73
2022-12-01T01:25:43.319Z,49.95
2022-12-01T01:26:43.285Z,49.15
2022-12-01T01:27:43.274Z,46.08
2022-12-01T01:28:43.276Z,43.34
2022-12-01T01:29:43.252Z,43.18
2022-12-01T01:30:43.291Z,42.86
2022-12-01T01:31:43.247Z,44.63
2022-12-01T01:32:43.251Z,43.99
2022-12-01T01:33:43.202Z,45.28
2022-12-01T01:34:43.222Z,46.89
2022-12-01T01:35:43.202Z,47.86
2022-12-01T01:36:43.176Z,51.08
2022-12-01T01:37:43.173Z,44.96
2022-12-01T01:38:43.172Z,45.28
2022-12-01T01:39:43.206Z,49.31
2022-12-01T01:40:43.134Z,49.95
2022-12-01T01:41:43.128Z,48.98
2022-12-01T01:42:43.124Z,48.98
2022-12-01T01:43:43.119Z,47.70
2022-12-01T01:44:43.112Z,47.70
2022-12-01T01:45:43.193Z,45.60
2022-12-01T01:46:43.083Z,47.70
2022-12-01T01:47:43.062Z,47.53
2022-12-01T01:48:43.054Z,48.02
2022-12-01T01:49:43.077Z,48.66
2022-12-01T01:50:43.039Z,48.34
2022-12-01T01:51:43.031Z,49.15
2022-12-01T01:52:43.026Z,51.24
2022-12-01T01:53:43.010Z,44.63
2022-12-01T01:54:43.010Z,47.37
2022-12-01T01:55:43.002Z,48.50
2022-12-01T01:56:42.984Z,44.47
2022-12-01T01:57:42.972Z,45.12
2022-12-01T01:58:42.976Z,44.15
2022-12-01T01:59:42.951Z,44.15
2022-12-01T02:00:42.960Z,47.86
2022-12-01T02:01:43.020Z,45.44
2022-12-01T02:02:42.935Z,44.31
2022-12-01T02:03:42.910Z,46.57
2022-12-01T02:04:42.908Z,46.57
2022-12-01T02:05:42.882Z,46.57
2022-12-01T02:06:42.897Z,48.82
2022-12-01T02:07:42.941Z,46.25
2022-12-01T02:08:42.863Z,56.24
2022-12-01T02:09:42.907Z,50.76
2022-12-01T02:10:42.839Z,50.92
2022-12-01T02:11:42.839Z,53.33
2022-12-01T02:12:42.817Z,49.95
2022-12-01T02:13:42.799Z,47.53
2022-12-01T02:14:42.815Z,43.67
2022-12-01T02:15:42.800Z,44.31
2022-12-01T02:16:42.877Z,46.57
2022-12-01T02:17:42.785Z,45.92
2022-12-01T02:18:42.759Z,51.56
2022-12-01T02:19:42.758Z,47.21
2022-12-01T02:20:42.728Z,45.76
2022-12-01T02:21:42.725Z,50.92
2022-12-01T02:22:42.743Z,49.31
2022-12-01T02:23:42.720Z,49.15
2022-12-01T02:24:42.726Z,46.73
2022-12-01T02:25:42.696Z,48.98
2022-12-01T02:26:42.670Z,46.57
2022-12-01T02:27:42.678Z,46.08
2022-12-01T02:28:42.678Z,53.17
2022-12-01T02:29:42.653Z,48.66
2022-12-01T02:30:42.699Z,50.11
2022-12-01T02:31:42.655Z,53.01
2022-12-01T02:32:42.621Z,52.53
2022-12-01T02:33:42.611Z,47.05
2022-12-01T02:34:42.609Z,48.98
2022-12-01T02:35:42.609Z,49.15
2022-12-01T02:36:42.602Z,43.83
2022-12-01T02:37:42.578Z,48.50
2022-12-01T02:38:42.599Z,49.95
2022-12-01T02:39:42.560Z,46.25
2022-12-01T02:40:42.548Z,45.12
2022-12-01T02:41:42.542Z,45.44
2022-12-01T02:42:42.539Z,50.27
2022-12-01T02:43:42.538Z,53.98
2022-12-01T02:44:42.521Z,48.18
2022-12-01T02:45:42.530Z,45.12
2022-12-01T02:46:42.484Z,48.66
2022-12-01T02:47:42.494Z,47.05
2022-12-01T02:48:42.488Z,44.63
2022-12-01T02:50:08.404Z,46.41
2022-12-01T02:50:42.449Z,45.12
2022-12-01T02:51:42.443Z,46.08
2022-12-01T02:52:42.433Z,44.31
2022-12-01T02:53:42.425Z,52.37
2022-12-01T02:54:42.450Z,50.43
2022-12-01T02:55:42.401Z,50.60
2022-12-01T02:56:42.401Z,49.79
2022-12-01T02:57:42.395Z,51.08
2022-12-01T02:58:42.378Z,46.08
2022-12-01T02:59:42.441Z,44.47
2022-12-01T03:00:42.357Z,48.34
2022-12-01T03:01:42.436Z,49.31
2022-12-01T03:02:42.464Z,47.05
2022-12-01T03:03:42.333Z,46.25
2022-12-01T03:04:42.339Z,46.89
2022-12-01T03:05:42.336Z,50.60
2022-12-01T03:06:42.310Z,45.44
2022-12-01T03:07:42.332Z,45.28
2022-12-01T03:08:42.276Z,52.85
2022-12-01T03:09:42.271Z,46.73
2022-12-01T03:10:42.292Z,46.73
2022-12-01T03:11:42.278Z,45.44
2022-12-01T03:12:42.243Z,45.76
2022-12-01T03:13:42.244Z,48.98
2022-12-01T03:14:42.228Z,51.24
2022-12-01T03:15:42.238Z,49.31
2022-12-01T03:16:42.230Z,52.37
2022-12-01T03:17:42.187Z,47.53
2022-12-01T03:18:42.192Z,47.53
2022-12-01T03:19:42.179Z,48.50
2022-12-01T03:20:42.175Z,48.34
2022-12-01T03:21:42.177Z,45.76
2022-12-01T03:22:42.148Z,44.31
2022-12-01T03:23:42.137Z,45.92
2022-12-01T03:24:42.125Z,47.53
2022-12-01T03:25:43.122Z,49.95
2022-12-01T03:26:42.150Z,50.92
2022-12-01T03:28:00.578Z,48.50
2022-12-01T03:28:43.101Z,49.15
2022-12-01T03:29:42.091Z,51.24
2022-12-01T03:30:42.084Z,48.98
2022-12-01T03:31:42.084Z,48.82
2022-12-01T03:32:42.072Z,48.34
2022-12-01T03:33:42.046Z,47.05
2022-12-01T03:34:42.044Z,51.08
2022-12-01T03:35:42.026Z,54.30
2022-12-01T03:36:42.023Z,47.05
2022-12-01T03:37:42.016Z,51.88
2022-12-01T03:38:41.990Z,52.37
2022-12-01T03:39:41.992Z,53.01
2022-12-01T03:40:41.977Z,52.21
2022-12-01T03:41:41.977Z,51.08
2022-12-01T03:42:41.982Z,51.56
2022-12-01T03:43:41.995Z,50.11
2022-12-01T03:44:41.940Z,48.34
2022-12-01T03:45:41.927Z,44.47
2022-12-01T03:46:41.952Z,46.08
2022-12-01T03:47:41.928Z,51.24
2022-12-01T03:48:41.908Z,50.43
2022-12-01T03:49:41.895Z,51.40
2022-12-01T03:50:41.881Z,54.62
2022-12-01T03:51:41.867Z,56.07
2022-12-01T03:52:41.883Z,51.88
2022-12-01T03:53:41.838Z,48.18
2022-12-01T03:54:41.835Z,51.24
2022-12-01T03:55:41.821Z,49.31
2022-12-01T03:56:41.819Z,50.92
2022-12-01T03:57:41.833Z,49.31
2022-12-01T03:58:41.799Z,50.92
2022-12-01T03:59:41.797Z,48.82
2022-12-01T04:00:41.780Z,52.53
2022-12-01T04:01:41.802Z,52.69
2022-12-01T04:02:41.805Z,53.33
2022-12-01T04:03:41.748Z,53.01
2022-12-01T04:04:41.746Z,52.69
2022-12-01T04:05:41.729Z,50.92
2022-12-01T04:06:41.721Z,50.27
2022-12-01T04:07:41.786Z,53.82
2022-12-01T04:08:41.716Z,53.17
2022-12-01T04:09:41.702Z,54.62
2022-12-01T04:10:41.693Z,52.69
2022-12-01T04:11:41.678Z,50.27
2022-12-01T04:12:41.669Z,52.85
2022-12-01T04:13:41.675Z,57.52
2022-12-01T04:14:41.678Z,50.76
2022-12-01T04:15:41.709Z,52.05
2022-12-01T04:16:41.630Z,55.11
2022-12-01T04:17:41.612Z,54.95
2022-12-01T04:18:41.621Z,53.82
2022-12-01T04:19:41.622Z,53.33
2022-12-01T04:20:41.582Z,52.37
2022-12-01T04:21:41.579Z,55.43
2022-12-01T04:22:41.567Z,53.33
2022-12-01T04:23:41.557Z,55.27
2022-12-01T04:24:41.566Z,53.17
2022-12-01T04:25:41.553Z,53.66
2022-12-01T04:26:41.555Z,56.56
2022-12-01T04:27:41.544Z,55.91
2022-12-01T04:28:41.522Z,56.07
2022-12-01T04:29:41.513Z,54.79
2022-12-01T04:30:41.476Z,53.33
2022-12-01T04:31:41.504Z,51.40
2022-12-01T04:32:41.460Z,55.59
2022-12-01T04:33:41.451Z,56.40
2022-12-01T04:34:41.470Z,57.52
2022-12-01T04:35:41.453Z,58.01
2022-12-01T04:36:41.434Z,58.17
2022-12-01T04:37:41.414Z,54.95
2022-12-01T04:38:41.429Z,57.85
2022-12-01T04:39:41.386Z,56.72
2022-12-01T04:40:41.396Z,57.04
2022-12-01T04:41:41.390Z,56.88
2022-12-01T04:42:41.389Z,53.82
2022-12-01T04:43:41.395Z,55.59
2022-12-01T04:44:41.367Z,56.72
2022-12-01T04:45:41.376Z,58.17
2022-12-01T04:46:41.386Z,53.17
2022-12-01T04:47:41.315Z,54.95
2022-12-01T04:48:41.304Z,53.17
2022-12-01T04:49:41.311Z,54.46
2022-12-01T04:50:41.319Z,55.11
2022-12-01T04:51:41.298Z,58.65
2022-12-01T04:52:41.286Z,55.91
2022-12-01T04:53:41.274Z,56.24
2022-12-01T04:54:41.251Z,56.24
2022-12-01T04:55:41.251Z,56.24
2022-12-01T04:56:41.251Z,55.91
2022-12-01T04:57:41.219Z,56.24
2022-12-01T04:58:41.216Z,55.43
2022-12-01T04:59:41.220Z,56.24
2022-12-01T05:00:41.236Z,53.33
2022-12-01T05:01:41.294Z,54.46
2022-12-01T05:02:41.175Z,56.56
2022-12-01T05:03:41.188Z,58.01
2022-12-01T05:04:41.157Z,57.04
2022-12-01T05:05:41.151Z,57.04
2022-12-01T05:06:41.126Z,57.85
2022-12-01T05:07:41.169Z,57.52
2022-12-01T05:08:41.144Z,56.56
2022-12-01T05:09:41.111Z,56.07
2022-12-01T05:10:41.086Z,56.24
2022-12-01T05:11:41.086Z,55.43
2022-12-01T05:12:41.076Z,54.95
2022-12-01T05:13:41.076Z,57.52
2022-12-01T05:14:41.959Z,56.56
2022-12-01T05:15:41.039Z,54.95
2022-12-01T05:16:41.088Z,56.56
2022-12-01T05:17:41.032Z,55.75
2022-12-01T05:18:41.095Z,58.17
2022-12-01T05:19:41.024Z,57.36
2022-12-01T05:20:40.987Z,57.69
2022-12-01T05:21:40.983Z,57.69
2022-12-01T05:23:04.274Z,57.69
2022-12-01T05:23:42.970Z,57.20
2022-12-01T05:24:40.971Z,56.56
2022-12-01T05:25:40.947Z,57.04
2022-12-01T05:26:40.926Z,57.52
2022-12-01T05:27:40.924Z,56.07
2022-12-01T05:28:40.936Z,54.14
2022-12-01T05:29:40.901Z,57.04
2022-12-01T05:30:40.892Z,60.26
2022-12-01T05:31:40.951Z,57.20
2022-12-01T05:32:40.874Z,57.04
2022-12-01T05:33:40.907Z,59.78
2022-12-01T05:34:40.869Z,57.85
2022-12-01T05:35:40.848Z,57.20
2022-12-01T05:36:40.838Z,56.07
2022-12-01T05:37:40.847Z,56.88
2022-12-01T05:38:40.850Z,57.69
2022-12-01T05:39:40.811Z,58.65
2022-12-01T05:40:40.788Z,58.97
2022-12-01T05:41:40.788Z,60.59
2022-12-01T05:42:40.784Z,65.10
2022-12-01T05:43:40.770Z,58.97
2022-12-01T05:44:40.781Z,59.46
2022-12-01T05:45:40.840Z,58.17
2022-12-01T05:46:40.760Z,58.01
2022-12-01T05:47:40.730Z,56.72
2022-12-01T05:48:40.740Z,57.36
2022-12-01T05:49:40.967Z,57.69
2022-12-01T05:50:40.723Z,57.69
2022-12-01T05:51:40.691Z,58.17
2022-12-01T05:52:40.689Z,58.01
2022-12-01T05:53:40.696Z,58.01
2022-12-01T05:54:40.682Z,58.65
2022-12-01T05:55:40.652Z,58.17
2022-12-01T05:56:40.664Z,58.33
2022-12-01T05:57:40.633Z,59.78
2022-12-01T05:58:40.657Z,59.78
2022-12-01T05:59:40.631Z,59.46
2022-12-01T06:00:45.663Z,57.04
2022-12-01T06:01:41.655Z,57.04
2022-12-01T06:02:40.611Z,58.01
2022-12-01T06:03:40.585Z,57.69
2022-12-01T06:04:40.581Z,58.17
2022-12-01T06:05:40.582Z,57.04
2022-12-01T06:06:40.562Z,56.07
2022-12-01T06:07:40.796Z,58.49
2022-12-01T06:08:40.536Z,58.33
2022-12-01T06:09:40.515Z,56.56
2022-12-01T06:10:40.536Z,56.40
2022-12-01T06:11:40.511Z,58.17
2022-12-01T06:12:40.519Z,56.56
2022-12-01T06:13:40.505Z,58.33
2022-12-01T06:14:40.467Z,58.81
2022-12-01T06:15:40.461Z,57.85
2022-12-01T06:16:40.456Z,58.17
2022-12-01T06:17:40.736Z,58.01
2022-12-01T06:18:41.495Z,57.69
2022-12-01T06:19:40.418Z,57.36
2022-12-01T06:20:40.419Z,57.85
2022-12-01T06:21:40.393Z,59.14
2022-12-01T06:22:40.397Z,58.97
2022-12-01T06:23:40.436Z,56.88
2022-12-01T06:24:40.378Z,57.69
2022-12-01T06:25:40.384Z,59.14
2022-12-01T06:26:40.365Z,58.33
2022-12-01T06:27:40.354Z,58.81
2022-12-01T06:28:40.326Z,58.17
2022-12-01T06:29:42.184Z,58.97
2022-12-01T06:30:42.328Z,57.52
2022-12-01T06:31:40.369Z,58.33
2022-12-01T06:32:40.301Z,56.56
2022-12-01T06:33:40.307Z,58.01
2022-12-01T06:34:40.289Z,58.65
2022-12-01T06:35:40.294Z,58.17
2022-12-01T06:36:40.260Z,58.17
2022-12-01T06:37:40.269Z,58.65
2022-12-01T06:38:40.235Z,58.33
2022-12-01T06:39:40.226Z,58.01
2022-12-01T06:40:40.208Z,58.97
2022-12-01T06:41:40.215Z,58.49
2022-12-01T06:42:40.214Z,58.17
2022-12-01T06:43:40.192Z,58.81
2022-12-01T06:44:40.178Z,58.49
2022-12-01T06:45:40.206Z,57.85
2022-12-01T06:46:40.240Z,57.20
2022-12-01T06:47:40.147Z,57.36
2022-12-01T06:48:40.133Z,57.69
2022-12-01T06:49:40.132Z,60.26
2022-12-01T06:50:40.126Z,57.36
2022-12-01T06:51:40.124Z,56.72
2022-12-01T06:52:41.123Z,57.52
2022-12-01T06:53:40.095Z,56.24
2022-12-01T06:54:40.074Z,58.65
2022-12-01T06:55:40.061Z,57.69
2022-12-01T06:56:40.057Z,59.14
2022-12-01T06:57:40.064Z,58.17
2022-12-01T06:58:40.037Z,57.52
2022-12-01T06:59:40.026Z,57.20
2022-12-01T07:00:40.017Z,58.17
2022-12-01T07:01:40.109Z,59.78
2022-12-01T07:02:40.085Z,57.69
2022-12-01T07:03:39.999Z,55.91
2022-12-01T07:04:39.966Z,57.52
2022-12-01T07:05:39.965Z,57.85
2022-12-01T07:06:39.955Z,56.07
2022-12-01T07:07:39.998Z,58.81
2022-12-01T07:08:40.963Z,58.81
2022-12-01T07:09:39.941Z,58.65
2022-12-01T07:10:39.923Z,57.04
2022-12-01T07:11:39.934Z,59.46
2022-12-01T07:12:39.906Z,59.30
2022-12-01T07:13:39.890Z,55.43
2022-12-01T07:14:39.875Z,55.91
2022-12-01T07:15:39.877Z,57.36
2022-12-01T07:16:39.955Z,58.33
2022-12-01T07:17:39.848Z,58.17
2022-12-01T07:18:39.834Z,57.36
2022-12-01T07:19:39.837Z,57.36
2022-12-01T07:20:39.818Z,60.42
2022-12-01T07:21:39.840Z,59.46
2022-12-01T07:22:39.792Z,58.17
2022-12-01T07:23:39.789Z,59.78
2022-12-01T07:24:39.775Z,58.81
2022-12-01T07:25:39.781Z,57.36
2022-12-01T07:26:39.773Z,58.81
2022-12-01T07:27:39.751Z,58.33
2022-12-01T07:28:39.737Z,58.49
2022-12-01T07:29:39.740Z,60.26
2022-12-01T07:30:39.755Z,59.14
2022-12-01T07:31:39.727Z,57.85
2022-12-01T07:32:39.700Z,57.69
2022-12-01T07:33:39.700Z,58.65
2022-12-01T07:34:39.684Z,58.49
2022-12-01T07:35:39.676Z,57.85
2022-12-01T07:36:39.670Z,59.94
2022-12-01T07:37:39.668Z,57.85
2022-12-01T07:38:39.633Z,59.78
2022-12-01T07:39:39.655Z,58.17
2022-12-01T07:40:39.629Z,57.69
2022-12-01T07:41:39.614Z,58.01
2022-12-01T07:42:39.586Z,58.33
2022-12-01T07:43:39.589Z,58.33
2022-12-01T07:44:39.596Z,57.36
2022-12-01T07:45:39.686Z,58.65
2022-12-01T07:46:39.572Z,60.10
2022-12-01T07:47:39.792Z,58.65
2022-12-01T07:48:39.554Z,59.46
2022-12-01T07:49:39.528Z,56.88
2022-12-01T07:50:39.557Z,58.33
2022-12-01T07:51:39.519Z,58.17
2022-12-01T07:52:39.505Z,57.52
2022-12-01T07:53:39.504Z,57.85
2022-12-01T07:54:39.486Z,57.69
2022-12-01T07:55:39.493Z,56.07
2022-12-01T07:56:39.461Z,57.69
2022-12-01T07:57:39.457Z,59.14
2022-12-01T07:58:39.454Z,58.49
2022-12-01T07:59:39.435Z,57.20
2022-12-01T08:00:39.439Z,58.33
2022-12-01T08:01:44.270Z,58.65
2022-12-01T08:02:41.489Z,56.40
2022-12-01T08:03:39.407Z,55.91
2022-12-01T08:04:39.384Z,57.52
2022-12-01T08:05:39.382Z,58.17
2022-12-01T08:06:39.383Z,58.01
2022-12-01T08:07:39.490Z,56.56
2022-12-01T08:08:39.402Z,56.07
2022-12-01T08:09:39.342Z,58.65
2022-12-01T08:10:39.342Z,57.04
2022-12-01T08:11:39.325Z,56.88
2022-12-01T08:12:39.309Z,57.52
2022-12-01T08:13:39.332Z,58.33
2022-12-01T08:14:39.276Z,55.91
2022-12-01T08:15:39.342Z,56.56
2022-12-01T08:16:39.275Z,58.17
2022-12-01T08:17:39.288Z,57.85
2022-12-01T08:18:39.257Z,56.72
2022-12-01T08:19:39.257Z,58.97
2022-12-01T08:20:39.239Z,57.52
2022-12-01T08:21:39.224Z,58.97
2022-12-01T08:22:39.213Z,59.30
2022-12-01T08:23:39.201Z,56.56
2022-12-01T08:24:39.216Z,56.56
2022-12-01T08:25:39.195Z,56.88
2022-12-01T08:26:39.170Z,58.65
2022-12-01T08:27:39.170Z,57.04
2022-12-01T08:28:40.155Z,58.17
2022-12-01T08:29:39.132Z,58.65
2022-12-01T08:30:39.132Z,58.01
2022-12-01T08:31:39.170Z,56.40
2022-12-01T08:32:39.108Z,57.85
2022-12-01T08:33:39.126Z,58.17
2022-12-01T08:34:39.109Z,58.17
2022-12-01T08:35:39.092Z,57.20
2022-12-01T08:36:39.083Z,56.40
2022-12-01T08:37:39.055Z,58.17
2022-12-01T08:38:39.053Z,56.72
2022-12-01T08:39:39.058Z,56.56
2022-12-01T08:40:39.032Z,55.91
2022-12-01T08:41:39.022Z,57.69
2022-12-01T08:42:39.024Z,56.56
2022-12-01T08:43:57.084Z,58.49
2022-12-01T08:44:41.111Z,57.85
2022-12-01T08:45:38.974Z,57.85
2022-12-01T08:46:38.993Z,58.01
2022-12-01T08:47:38.969Z,57.04
2022-12-01T08:48:38.968Z,58.17
2022-12-01T08:49:38.955Z,58.17
2022-12-01T08:50:38.949Z,56.88
2022-12-01T08:52:10.807Z,57.20
2022-12-01T08:52:38.911Z,58.49
2022-12-01T08:53:44.015Z,57.85
2022-12-01T08:54:39.894Z,58.01
2022-12-01T08:55:38.889Z,58.49
2022-12-01T08:56:38.864Z,57.85
2022-12-01T08:57:38.857Z,57.36
2022-12-01T08:58:38.857Z,57.85
2022-12-01T08:59:38.845Z,58.17
2022-12-01T09:00:38.832Z,58.17
2022-12-01T09:01:38.876Z,56.56
2022-12-01T09:02:38.856Z,56.56
2022-12-01T09:03:38.795Z,56.40
2022-12-01T09:04:38.793Z,58.65
2022-12-01T09:05:38.790Z,56.88
2022-12-01T09:06:38.794Z,58.17
2022-12-01T09:07:38.788Z,56.72
2022-12-01T09:08:38.757Z,57.04
2022-12-01T09:09:38.766Z,57.52
2022-12-01T09:10:38.738Z,57.85
2022-12-01T09:11:38.720Z,56.88
2022-12-01T09:12:38.716Z,56.56
2022-12-01T09:13:38.708Z,58.65
2022-12-01T09:14:38.726Z,57.69
2022-12-01T09:15:38.684Z,58.65
2022-12-01T09:16:38.793Z,57.36
2022-12-01T09:17:38.665Z,56.07
2022-12-01T09:18:38.655Z,56.72
2022-12-01T09:19:38.638Z,55.27
2022-12-01T09:20:38.674Z,54.95
2022-12-01T09:21:38.626Z,56.56
2022-12-01T09:22:38.622Z,56.72
2022-12-01T09:23:38.606Z,56.56
2022-12-01T09:24:38.596Z,56.56
2022-12-01T09:25:38.610Z,57.69
2022-12-01T09:26:38.610Z,59.46
2022-12-01T09:27:38.577Z,56.56
2022-12-01T09:28:38.565Z,56.72
2022-12-01T09:29:38.589Z,58.33
2022-12-01T09:30:38.556Z,57.20
2022-12-01T09:31:38.571Z,57.85
2022-12-01T09:32:38.511Z,58.65
2022-12-01T09:33:38.509Z,58.01
2022-12-01T09:34:38.521Z,58.17
2022-12-01T09:35:38.486Z,57.69
2022-12-01T09:36:38.472Z,56.72
2022-12-01T09:37:38.461Z,57.85
2022-12-01T09:38:38.453Z,57.04
2022-12-01T09:39:38.467Z,58.65
2022-12-01T09:40:38.477Z,58.81
2022-12-01T09:41:38.438Z,58.01
2022-12-01T09:42:38.424Z,57.04
2022-12-01T09:43:38.409Z,57.69
2022-12-01T09:44:38.399Z,58.17
2022-12-01T09:45:38.455Z,58.81
2022-12-01T09:46:38.462Z,59.46
2022-12-01T09:47:38.371Z,56.88
2022-12-01T09:48:38.355Z,58.65
2022-12-01T09:49:38.349Z,58.17
2022-12-01T09:50:38.350Z,60.75
2022-12-01T09:51:38.324Z,58.81
2022-12-01T09:52:38.324Z,58.65
2022-12-01T09:53:38.308Z,58.33
2022-12-01T09:54:38.314Z,58.01
2022-12-01T09:55:38.293Z,56.88
2022-12-01T09:56:38.277Z,56.88
2022-12-01T09:57:38.264Z,57.36
2022-12-01T09:58:38.285Z,58.33
2022-12-01T09:59:38.250Z,57.36
2022-12-01T10:00:38.274Z,57.69
2022-12-01T10:01:38.350Z,58.97
2022-12-01T10:02:38.512Z,56.56
2022-12-01T10:03:38.235Z,56.56
2022-12-01T10:04:38.201Z,57.20
2022-12-01T10:05:51.305Z,57.85
2022-12-01T10:06:38.255Z,57.69
2022-12-01T10:07:38.228Z,58.01
2022-12-01T10:08:38.185Z,58.17
2022-12-01T10:09:38.159Z,58.17
2022-12-01T10:10:38.160Z,59.14
2022-12-01T10:11:38.133Z,58.01
2022-12-01T10:12:38.120Z,56.40
2022-12-01T10:13:38.110Z,57.52
2022-12-01T10:14:38.103Z,58.01
2022-12-01T10:15:38.105Z,56.40
2022-12-01T10:16:38.135Z,58.17
2022-12-01T10:17:38.079Z,59.62
2022-12-01T10:18:38.063Z,59.30
2022-12-01T10:19:38.058Z,55.91
2022-12-01T10:20:38.072Z,58.65
2022-12-01T10:21:38.044Z,55.59
2022-12-01T10:22:38.039Z,58.17
2022-12-01T10:23:38.046Z,56.56
2022-12-01T10:24:38.009Z,57.20
2022-12-01T10:25:37.998Z,58.17
2022-12-01T10:26:37.986Z,58.17
2022-12-01T10:27:37.978Z,60.59
2022-12-01T10:28:37.993Z,58.01
2022-12-01T10:29:37.953Z,57.52
2022-12-01T10:30:37.939Z,57.04
2022-12-01T10:31:37.963Z,56.88
2022-12-01T10:32:37.918Z,58.17
2022-12-01T10:33:37.927Z,57.36
2022-12-01T10:34:37.932Z,57.36
2022-12-01T10:35:37.911Z,55.75
2022-12-01T10:36:37.899Z,58.17
2022-12-01T10:37:37.907Z,58.33
2022-12-01T10:38:37.872Z,57.52
2022-12-01T10:39:37.851Z,57.85
2022-12-01T10:40:37.840Z,58.33
2022-12-01T10:41:37.855Z,59.46
2022-12-01T10:42:37.832Z,56.88
2022-12-01T10:43:38.807Z,57.52
2022-12-01T10:44:37.822Z,58.97
2022-12-01T10:45:37.896Z,57.69
2022-12-01T10:46:37.803Z,58.01
2022-12-01T10:47:37.807Z,58.97
2022-12-01T10:48:37.773Z,58.65
2022-12-01T10:49:37.761Z,57.69
2022-12-01T10:50:37.755Z,57.69
2022-12-01T10:51:37.738Z,58.01
2022-12-01T10:52:37.761Z,57.52
2022-12-01T10:53:37.735Z,59.14
2022-12-01T10:54:37.712Z,57.69
2022-12-01T10:55:39.136Z,58.17
2022-12-01T10:56:37.692Z,57.36
2022-12-01T10:57:37.715Z,58.65
2022-12-01T10:58:37.684Z,56.72
2022-12-01T10:59:37.670Z,57.36
2022-12-01T11:01:39.774Z,57.85
2022-12-01T11:02:37.843Z,56.88
2022-12-01T11:03:37.717Z,60.26
2022-12-01T11:04:37.615Z,58.65
2022-12-01T11:05:37.603Z,58.65
2022-12-01T11:06:37.589Z,59.46
2022-12-01T11:07:37.633Z,56.88
2022-12-01T11:08:37.606Z,57.20
2022-12-01T11:09:37.559Z,60.10
2022-12-01T11:10:37.574Z,60.26
2022-12-01T11:11:37.584Z,58.01
2022-12-01T11:12:37.536Z,59.14
2022-12-01T11:13:37.535Z,57.04
2022-12-01T11:14:37.521Z,58.17
2022-12-01T11:15:37.513Z,57.69
2022-12-01T11:16:37.552Z,58.65
2022-12-01T11:17:37.488Z,58.65
2022-12-01T11:18:37.540Z,58.49
2022-12-01T11:19:37.535Z,58.33
2022-12-01T11:20:37.493Z,58.01
2022-12-01T11:21:37.470Z,58.49
2022-12-01T11:22:37.465Z,58.97
2022-12-01T11:23:37.449Z,58.17
2022-12-01T11:24:37.443Z,56.72
2022-12-01T11:25:37.417Z,59.14
2022-12-01T11:26:37.409Z,59.46
2022-12-01T11:27:37.388Z,57.04
2022-12-01T11:28:37.407Z,57.85
2022-12-01T11:29:37.373Z,59.30
2022-12-01T11:30:37.374Z,57.36
2022-12-01T11:31:37.389Z,58.65
2022-12-01T11:32:37.360Z,57.36
2022-12-01T11:33:37.337Z,58.49
2022-12-01T11:34:37.338Z,59.62
2022-12-01T11:35:37.338Z,58.33
2022-12-01T11:36:37.307Z,58.17
2022-12-01T11:37:37.290Z,56.88
2022-12-01T11:38:37.281Z,57.85
2022-12-01T11:39:37.281Z,57.04
2022-12-01T11:40:37.305Z,56.56
2022-12-01T11:41:37.249Z,57.20
2022-12-01T11:42:37.271Z,59.46
2022-12-01T11:43:37.240Z,58.81
2022-12-01T11:44:51.483Z,57.85
2022-12-01T11:45:39.290Z,60.10
2022-12-01T11:46:42.681Z,58.01
2022-12-01T11:47:38.207Z,58.49
2022-12-01T11:48:37.188Z,58.49
2022-12-01T11:49:40.087Z,57.69
2022-12-01T11:50:37.192Z,56.40
2022-12-01T11:51:37.192Z,58.97
2022-12-01T11:52:37.145Z,58.49
2022-12-01T11:53:37.227Z,59.30
2022-12-01T11:54:37.137Z,58.49
2022-12-01T11:55:37.137Z,56.56
2022-12-01T11:56:37.117Z,59.30
2022-12-01T11:57:37.099Z,57.36
2022-12-01T11:58:37.126Z,57.69
2022-12-01T11:59:37.094Z,56.88
2022-12-01T12:00:37.053Z,60.42
2022-12-01T12:01:38.072Z,59.30
2022-12-01T12:02:37.081Z,57.69
2022-12-01T12:03:37.104Z,58.49
2022-12-01T12:04:37.084Z,59.46
2022-12-01T12:05:37.020Z,57.69
2022-12-01T12:06:40.681Z,57.85
2022-12-01T12:07:38.058Z,58.17
2022-12-01T12:08:37.042Z,58.17
2022-12-01T12:09:41.762Z,59.30
2022-12-01T12:10:38.005Z,58.17
2022-12-01T12:11:36.963Z,59.46
2022-12-01T12:12:36.956Z,58.49
2022-12-01T12:13:36.977Z,59.14
2022-12-01T12:14:36.937Z,58.81
2022-12-01T12:15:36.925Z,57.20
2022-12-01T12:16:36.927Z,57.52
2022-12-01T12:17:36.997Z,57.85
2022-12-01T12:18:36.920Z,60.26
2022-12-01T12:19:59.960Z,59.14
2022-12-01T12:20:38.883Z,59.46
2022-12-01T12:21:36.852Z,60.42
2022-12-01T12:22:36.874Z,58.33
2022-12-01T12:23:36.858Z,57.04
2022-12-01T12:24:36.860Z,56.88
2022-12-01T12:25:36.826Z,58.33
2022-12-01T12:26:36.821Z,58.97
2022-12-01T12:27:36.813Z,58.01
2022-12-01T12:28:36.789Z,58.33
2022-12-01T12:29:36.795Z,58.81
2022-12-01T12:30:36.808Z,58.65
2022-12-01T12:31:36.769Z,56.88
2022-12-01T12:32:36.774Z,58.01
2022-12-01T12:33:36.744Z,58.01
2022-12-01T12:34:36.733Z,59.30
2022-12-01T12:35:36.718Z,58.81
2022-12-01T12:36:36.732Z,58.33
2022-12-01T12:37:36.726Z,58.33
2022-12-01T12:38:36.714Z,59.14
2022-12-01T12:39:36.708Z,58.17
2022-12-01T12:40:36.677Z,59.14
2022-12-01T12:41:36.667Z,58.65
2022-12-01T12:42:36.648Z,58.17
2022-12-01T12:43:36.687Z,60.26
2022-12-01T12:44:37.582Z,57.69
2022-12-01T12:45:37.641Z,57.85
2022-12-01T12:46:36.655Z,58.65
2022-12-01T12:47:36.600Z,56.24
2022-12-01T12:48:50.888Z,57.69
2022-12-01T12:49:38.599Z,56.56
2022-12-01T12:50:36.582Z,59.78
2022-12-01T12:51:36.569Z,60.59
2022-12-01T12:52:36.570Z,60.42
2022-12-01T12:53:36.568Z,60.59